createdAt,value
2022-11-14T00:01:08.317Z,101759.13
2022-11-14T00:03:35.012Z,101755.63
2022-11-14T00:06:06.144Z,101758.34
2022-11-14T00:08:32.880Z,101756.63
2022-11-14T00:10:59.809Z,101768.84
2022-11-14T00:13:26.458Z,101766.25
2022-11-14T00:15:55.939Z,101761.75
2022-11-14T00:18:23.537Z,101756.47
2022-11-14T00:20:51.796Z,101753.25
2022-11-14T00:23:22.490Z,101745.25
2022-11-14T00:25:52.628Z,101749.75
2022-11-14T00:28:19.254Z,101741.75
2022-11-14T00:30:48.052Z,101741.00
2022-11-14T00:33:19.766Z,101743.50
2022-11-14T00:35:54.379Z,101746.25
2022-11-14T00:38:21.448Z,101740.94
2022-11-14T00:40:48.180Z,101735.59
2022-11-14T00:43:14.917Z,101729.38
2022-11-14T00:45:46.575Z,101729.28
2022-11-14T00:48:13.943Z,101725.88
2022-11-14T00:50:43.527Z,101718.09
2022-11-14T00:53:10.554Z,101713.75
2022-11-14T00:55:37.166Z,101720.81
2022-11-14T00:58:04.348Z,101717.22
2022-11-14T01:00:31.233Z,101725.22
2022-11-14T01:03:01.366Z,101713.84
2022-11-14T01:05:28.103Z,101715.56
2022-11-14T01:07:54.755Z,101712.00
2022-11-14T01:10:21.874Z,101705.00
2022-11-14T01:12:48.638Z,101705.00
2022-11-14T01:15:15.412Z,101705.09
2022-11-14T01:17:42.034Z,101701.50
2022-11-14T01:20:08.930Z,101697.19
2022-11-14T01:22:38.365Z,101691.84
2022-11-14T01:25:05.375Z,101690.09
2022-11-14T01:27:32.038Z,101692.84
2022-11-14T01:29:58.743Z,101671.84
2022-11-14T01:32:27.161Z,101665.72
2022-11-14T01:34:53.811Z,101662.19
2022-11-14T01:37:20.462Z,101660.47
2022-11-14T01:39:47.108Z,101661.25
2022-11-14T01:42:13.724Z,101661.31
2022-11-14T01:44:52.535Z,101661.34
2022-11-14T01:47:22.845Z,101656.97
2022-11-14T01:49:54.077Z,101648.13
2022-11-14T01:52:32.297Z,101651.56
2022-11-14T01:55:00.683Z,101639.47
2022-11-14T01:57:34.060Z,101634.13
2022-11-14T02:00:06.156Z,101633.25
2022-11-14T02:02:32.784Z,101630.63
2022-11-14T02:05:09.350Z,101627.25
2022-11-14T02:07:39.216Z,101633.44
2022-11-14T02:10:09.339Z,101631.69
2022-11-14T02:12:36.450Z,101618.47
2022-11-14T02:15:04.018Z,101614.06
2022-11-14T02:17:31.265Z,101605.97
2022-11-14T02:20:10.633Z,101595.50
2022-11-14T02:22:39.318Z,101599.78
2022-11-14T02:25:07.339Z,101584.13
2022-11-14T02:27:35.047Z,101582.47
2022-11-14T02:30:11.114Z,101589.50
2022-11-14T02:33:08.883Z,101583.19
2022-11-14T02:35:24.300Z,101581.50
2022-11-14T02:37:50.954Z,101573.56
2022-11-14T02:40:17.651Z,101559.53
2022-11-14T02:42:44.452Z,101562.97
2022-11-14T02:45:11.526Z,101568.41
2022-11-14T02:47:38.160Z,101564.03
2022-11-14T02:50:05.079Z,101560.59
2022-11-14T02:52:31.689Z,101564.91
2022-11-14T02:54:58.299Z,101554.41
2022-11-14T02:57:24.932Z,101559.63
2022-11-14T02:59:51.533Z,101555.34
2022-11-14T03:02:18.191Z,101547.41
2022-11-14T03:04:44.794Z,101552.72
2022-11-14T03:07:11.630Z,101554.50
2022-11-14T03:09:38.285Z,101548.44
2022-11-14T03:12:04.996Z,101541.38
2022-11-14T03:14:31.869Z,101546.59
2022-11-14T03:16:58.480Z,101542.31
2022-11-14T03:19:25.089Z,101539.66
2022-11-14T03:21:51.694Z,101537.09
2022-11-14T03:24:18.403Z,101536.19
2022-11-14T03:26:45.018Z,101536.13
2022-11-14T03:29:11.587Z,101530.88
2022-11-14T03:31:38.216Z,101536.13
2022-11-14T03:34:04.826Z,101538.72
2022-11-14T03:36:31.519Z,101529.19
2022-11-14T03:38:58.197Z,101526.41
2022-11-14T03:41:24.783Z,101524.72
2022-11-14T03:43:51.368Z,101527.38
2022-11-14T03:46:17.952Z,101518.63
2022-11-14T03:48:44.533Z,101519.50
2022-11-14T03:51:11.124Z,101515.13
2022-11-14T03:53:37.750Z,101509.88
2022-11-14T03:56:04.601Z,101498.50
2022-11-14T03:58:31.571Z,101495.84
2022-11-14T04:00:58.593Z,101500.31
2022-11-14T04:03:25.667Z,101502.00
2022-11-14T04:05:52.308Z,101493.25
2022-11-14T04:08:18.976Z,101489.75
2022-11-14T04:10:49.290Z,101493.09
2022-11-14T04:13:16.165Z,101482.56
2022-11-14T04:15:43.236Z,101480.94
2022-11-14T04:18:09.850Z,101486.13
2022-11-14T04:20:36.639Z,101478.22
2022-11-14T04:23:03.272Z,101472.16
2022-11-14T04:25:29.921Z,101473.03
2022-11-14T04:27:56.584Z,101478.19
2022-11-14T04:30:23.263Z,101472.09
2022-11-14T04:32:49.943Z,101472.00
2022-11-14T04:35:16.640Z,101466.81
2022-11-14T04:37:43.285Z,101465.09
2022-11-14T04:40:10.178Z,101469.53
2022-11-14T04:42:36.802Z,101466.84
2022-11-14T04:45:03.599Z,101460.66
2022-11-14T04:47:30.323Z,101454.53
2022-11-14T04:49:56.942Z,101456.25
2022-11-14T04:52:23.528Z,101457.91
2022-11-14T04:54:50.227Z,101452.66
2022-11-14T04:57:17.987Z,101453.56
2022-11-14T04:59:44.691Z,101446.53
2022-11-14T05:02:11.383Z,101438.75
2022-11-14T05:04:38.160Z,101432.56
2022-11-14T05:07:04.904Z,101442.16
2022-11-14T05:09:31.832Z,101438.69
2022-11-14T05:12:08.804Z,101437.78
2022-11-14T05:14:55.458Z,101443.03
2022-11-14T05:17:22.261Z,101437.88
2022-11-14T05:19:48.964Z,101442.25
2022-11-14T05:22:15.675Z,101434.38
2022-11-14T05:24:42.293Z,101438.69
2022-11-14T05:27:08.902Z,101442.25
2022-11-14T05:29:35.506Z,101439.53
2022-11-14T05:32:02.184Z,101429.91
2022-11-14T05:34:28.809Z,101431.69
2022-11-14T05:36:55.642Z,101436.03
2022-11-14T05:39:22.253Z,101428.06
2022-11-14T05:41:48.835Z,101431.59
2022-11-14T05:44:15.604Z,101433.34
2022-11-14T05:46:42.248Z,101429.84
2022-11-14T05:49:08.850Z,101433.25
2022-11-14T05:51:35.482Z,101431.59
2022-11-14T05:54:02.210Z,101428.09
2022-11-14T05:56:28.833Z,101419.34
2022-11-14T05:58:55.539Z,101431.59
2022-11-14T06:01:22.194Z,101434.22
2022-11-14T06:03:49.026Z,101430.63
2022-11-14T06:06:18.338Z,101435.75
2022-11-14T06:08:44.997Z,101429.81
2022-11-14T06:11:17.197Z,101428.03
2022-11-14T06:13:43.862Z,101439.47
2022-11-14T06:16:13.581Z,101436.75
2022-11-14T06:18:40.325Z,101440.34
2022-11-14T06:21:12.743Z,101449.97
2022-11-14T06:23:39.436Z,101452.53
2022-11-14T06:26:08.327Z,101445.38
2022-11-14T06:28:34.890Z,101450.75
2022-11-14T06:31:05.039Z,101455.13
2022-11-14T06:33:36.076Z,101450.81
2022-11-14T06:36:07.467Z,101451.78
2022-11-14T06:38:36.322Z,101450.84
2022-11-14T06:41:07.333Z,101443.81
2022-11-14T06:43:35.064Z,101456.03
2022-11-14T06:46:02.470Z,101452.53
2022-11-14T06:48:29.546Z,101445.47
2022-11-14T06:50:58.068Z,101449.88
2022-11-14T06:53:24.969Z,101448.28
2022-11-14T06:56:16.356Z,101437.72
2022-11-14T06:58:48.809Z,101442.06
2022-11-14T07:01:22.428Z,101442.06
2022-11-14T07:03:49.662Z,101444.63
2022-11-14T07:06:18.608Z,101440.41
2022-11-14T07:08:45.421Z,101433.31
2022-11-14T07:11:23.019Z,101451.59
2022-11-14T07:13:55.466Z,101447.22
2022-11-14T07:16:48.543Z,101443.75
2022-11-14T07:19:15.298Z,101441.00
2022-11-14T07:21:42.050Z,101435.72
2022-11-14T07:24:08.675Z,101432.47
2022-11-14T07:26:35.353Z,101444.63
2022-11-14T07:29:02.949Z,101432.44
2022-11-14T07:31:29.782Z,101434.88
2022-11-14T07:33:56.414Z,101429.63
2022-11-14T07:36:23.421Z,101424.63
2022-11-14T07:38:50.039Z,101415.03
2022-11-14T07:41:16.675Z,101425.47
2022-11-14T07:43:43.280Z,101419.44
2022-11-14T07:46:15.567Z,101424.69
2022-11-14T07:48:42.230Z,101424.78
2022-11-14T07:51:17.449Z,101422.22
2022-11-14T07:53:44.417Z,101415.19
2022-11-14T07:56:11.625Z,101421.41
2022-11-14T07:58:39.428Z,101423.16
2022-11-14T08:01:07.717Z,101417.84
2022-11-14T08:03:35.034Z,101426.66
2022-11-14T08:06:09.871Z,101418.00
2022-11-14T08:08:36.739Z,101424.84
2022-11-14T08:11:03.695Z,101407.44
2022-11-14T08:13:32.802Z,101412.53
2022-11-14T08:16:09.190Z,101410.00
2022-11-14T08:18:38.774Z,101408.28
2022-11-14T08:21:05.593Z,101411.00
2022-11-14T08:23:32.387Z,101409.25
2022-11-14T08:25:59.967Z,101405.75
2022-11-14T08:28:26.877Z,101397.81
2022-11-14T08:30:59.142Z,101394.38
2022-11-14T08:33:25.751Z,101400.50
2022-11-14T08:35:52.346Z,101391.81
2022-11-14T08:38:18.995Z,101401.44
2022-11-14T08:40:45.578Z,101398.00
2022-11-14T08:43:12.147Z,101390.13
2022-11-14T08:45:38.722Z,101392.75
2022-11-14T08:48:05.894Z,101402.38
2022-11-14T08:50:32.550Z,101402.31
2022-11-14T08:52:59.135Z,101398.00
2022-11-14T08:55:25.802Z,101391.94
2022-11-14T08:57:53.361Z,101383.19
2022-11-14T09:00:20.271Z,101391.06
2022-11-14T09:02:47.183Z,101397.19
2022-11-14T09:05:13.828Z,101392.94
2022-11-14T09:07:40.435Z,101387.69
2022-11-14T09:10:07.578Z,101380.78
2022-11-14T09:12:34.276Z,101380.81
2022-11-14T09:15:01.030Z,101385.19
2022-11-14T09:17:27.829Z,101387.06
2022-11-14T09:19:54.474Z,101389.66
2022-11-14T09:22:21.249Z,101389.66
2022-11-14T09:24:49.399Z,101389.66
2022-11-14T09:27:16.025Z,101385.19
2022-11-14T09:29:43.678Z,101385.09
2022-11-14T09:32:10.357Z,101383.34
2022-11-14T09:34:37.357Z,101373.59
2022-11-14T09:37:03.972Z,101376.31
2022-11-14T09:39:30.605Z,101372.81
2022-11-14T09:42:06.035Z,101380.63
2022-11-14T09:44:47.545Z,101380.63
2022-11-14T09:47:20.723Z,101373.78
2022-11-14T09:49:49.825Z,101364.97
2022-11-14T09:52:39.643Z,101357.91
2022-11-14T09:55:36.930Z,101360.59
2022-11-14T09:58:04.429Z,101358.88
2022-11-14T10:00:52.246Z,101362.28
2022-11-14T10:03:24.761Z,101358.84
2022-11-14T10:06:08.638Z,101357.13
2022-11-14T10:08:41.160Z,101355.34
2022-11-14T10:11:20.065Z,101344.03
2022-11-14T10:14:03.382Z,101354.59
2022-11-14T10:16:29.862Z,101352.75
2022-11-14T10:19:50.670Z,101345.81
2022-11-14T10:22:41.511Z,101327.50
2022-11-14T10:25:25.902Z,101318.78
2022-11-14T10:28:23.534Z,101310.94
2022-11-14T10:30:59.017Z,101305.69
2022-11-14T10:34:07.402Z,101309.19
2022-11-14T10:36:50.613Z,101298.69
2022-11-14T10:39:35.164Z,101305.69
2022-11-14T10:42:08.614Z,101302.16
2022-11-14T10:44:43.416Z,101304.81
2022-11-14T10:47:15.220Z,101291.59
2022-11-14T10:49:42.556Z,101299.47
2022-11-14T10:52:18.656Z,101294.22
2022-11-14T10:54:48.761Z,101298.63
2022-11-14T10:57:21.150Z,101288.97
2022-11-14T10:59:48.456Z,101290.75
2022-11-14T11:02:15.446Z,101283.75
2022-11-14T11:04:43.579Z,101276.69
2022-11-14T11:07:10.246Z,101281.97
2022-11-14T11:09:57.793Z,101271.44
2022-11-14T11:12:40.774Z,101260.00
2022-11-14T11:15:14.194Z,101250.22
2022-11-14T11:18:21.912Z,101254.56
2022-11-14T11:21:01.953Z,101258.91
2022-11-14T11:23:28.846Z,101259.81
2022-11-14T11:26:01.143Z,101251.00
2022-11-14T11:28:30.331Z,101244.00
2022-11-14T11:30:59.070Z,101247.44
2022-11-14T11:33:28.327Z,101240.38
2022-11-14T11:35:57.647Z,101238.81
2022-11-14T11:38:29.930Z,101243.19
2022-11-14T11:42:06.234Z,101246.72
2022-11-14T11:44:21.089Z,101236.19
2022-11-14T11:46:54.277Z,101229.13
2022-11-14T11:49:48.669Z,101220.38
2022-11-14T11:52:26.882Z,101223.03
2022-11-14T11:55:08.650Z,101211.50
2022-11-14T11:57:48.884Z,101204.38
2022-11-14T12:00:18.275Z,101205.16
2022-11-14T12:02:49.994Z,101199.22
2022-11-14T12:05:23.757Z,101191.28
2022-11-14T12:08:04.498Z,101181.63
2022-11-14T12:10:34.345Z,101188.66
2022-11-14T12:13:19.429Z,101199.25
2022-11-14T12:15:55.850Z,101192.19
2022-11-14T12:18:38.150Z,101188.59
2022-11-14T12:21:15.403Z,101180.66
2022-11-14T12:23:57.165Z,101178.06
2022-11-14T12:27:24.519Z,101168.44
2022-11-14T12:30:04.627Z,101173.66
2022-11-14T12:32:57.481Z,101168.50
2022-11-14T12:35:26.803Z,101176.41
2022-11-14T12:37:56.067Z,101179.00
2022-11-14T12:40:34.620Z,101170.28
2022-11-14T12:43:02.631Z,101172.91
2022-11-14T12:45:41.456Z,101179.84
2022-11-14T12:48:14.249Z,101184.13
2022-11-14T12:50:42.541Z,101176.41
2022-11-14T12:53:38.177Z,101172.81
2022-11-14T12:56:16.779Z,101168.31
2022-11-14T12:59:06.418Z,101171.81
2022-11-14T13:01:41.677Z,101164.88
2022-11-14T13:04:26.739Z,101160.38
2022-11-14T13:07:12.294Z,101163.09
2022-11-14T13:09:58.162Z,101158.72
2022-11-14T13:12:53.450Z,101156.97
2022-11-14T13:15:50.009Z,101156.91
2022-11-14T13:18:43.409Z,101147.25
2022-11-14T13:21:43.788Z,101149.94
2022-11-14T13:24:16.532Z,101140.34
2022-11-14T13:26:48.540Z,101143.03
2022-11-14T13:29:41.241Z,101137.72
2022-11-14T13:32:11.983Z,101138.59
2022-11-14T13:34:45.277Z,101142.84
2022-11-14T13:37:40.128Z,101141.22
2022-11-14T13:40:06.702Z,101149.13
2022-11-14T13:42:48.139Z,101149.06
2022-11-14T13:45:41.470Z,101145.63
2022-11-14T13:48:33.873Z,101140.47
2022-11-14T13:51:21.786Z,101139.56
2022-11-14T13:53:52.294Z,101146.53
2022-11-14T13:56:32.579Z,101136.06
2022-11-14T13:59:20.893Z,101133.53
2022-11-14T14:01:50.608Z,101130.84
2022-11-14T14:04:54.862Z,101132.56
2022-11-14T14:07:44.931Z,101137.91
2022-11-14T14:10:24.771Z,101141.44
2022-11-14T14:13:19.850Z,101128.22
2022-11-14T14:15:58.065Z,101122.16
2022-11-14T14:18:54.179Z,101123.13
2022-11-14T14:21:51.809Z,101122.22
2022-11-14T14:24:47.203Z,101119.59
2022-11-14T14:27:20.723Z,101125.75
2022-11-14T14:30:01.439Z,101121.34
2022-11-14T14:32:28.172Z,101118.78
2022-11-14T14:34:58.485Z,101119.69
2022-11-14T14:37:27.452Z,101113.53
2022-11-14T14:40:01.162Z,101102.13
2022-11-14T14:42:35.207Z,101097.75
2022-11-14T14:45:03.181Z,101102.22
2022-11-14T14:47:34.297Z,101100.44
2022-11-14T14:50:03.502Z,101095.19
2022-11-14T14:52:37.716Z,101088.19
2022-11-14T14:55:06.733Z,101089.06
2022-11-14T14:57:33.631Z,101087.34
2022-11-14T15:00:00.863Z,101083.00
2022-11-14T15:02:28.548Z,101089.16
2022-11-14T15:04:56.161Z,101079.50
2022-11-14T15:07:25.128Z,101082.13
2022-11-14T15:09:57.331Z,101087.41
2022-11-14T15:12:25.554Z,101087.41
2022-11-14T15:14:53.731Z,101080.41
2022-11-14T15:17:22.060Z,101070.78
2022-11-14T15:19:50.674Z,101074.25
2022-11-14T15:22:20.492Z,101074.25
2022-11-14T15:25:11.696Z,101086.50
2022-11-14T15:27:48.811Z,101076.00
2022-11-14T15:30:27.599Z,101075.97
2022-11-14T15:32:56.407Z,101080.31
2022-11-14T15:35:25.480Z,101074.22
2022-11-14T15:38:36.747Z,101075.91
2022-11-14T15:41:18.442Z,101066.31
2022-11-14T15:43:45.053Z,101074.09
2022-11-14T15:46:28.919Z,101068.03
2022-11-14T15:48:55.979Z,101068.88
2022-11-14T15:51:40.007Z,101065.25
2022-11-14T15:54:20.403Z,101073.13
2022-11-14T15:56:48.510Z,101059.09
2022-11-14T15:59:15.444Z,101063.41
2022-11-14T16:01:43.588Z,101067.69
2022-11-14T16:04:15.192Z,101051.06
2022-11-14T16:06:41.900Z,101048.53
2022-11-14T16:09:14.332Z,101047.63
2022-11-14T16:11:40.921Z,101051.84
2022-11-14T16:14:09.754Z,101052.66
2022-11-14T16:16:36.592Z,101054.47
2022-11-14T16:19:03.500Z,101057.91
2022-11-14T16:21:30.193Z,101060.41
2022-11-14T16:23:59.459Z,101060.41
2022-11-14T16:26:26.360Z,101057.84
2022-11-14T16:28:53.203Z,101054.28
2022-11-14T16:31:20.739Z,101059.44
2022-11-14T16:33:50.217Z,101056.84
2022-11-14T16:36:20.785Z,101055.03
2022-11-14T16:38:51.995Z,101057.59
2022-11-14T16:41:19.661Z,101047.16
2022-11-14T16:43:46.350Z,101054.28
2022-11-14T16:46:12.946Z,101058.53
2022-11-14T16:48:39.541Z,101063.69
2022-11-14T16:51:20.219Z,101062.88
2022-11-14T16:53:56.648Z,101053.28
2022-11-14T16:56:23.604Z,101057.59
2022-11-14T16:58:54.563Z,101060.13
2022-11-14T17:01:21.825Z,101060.19
2022-11-14T17:03:48.491Z,101060.25
2022-11-14T17:06:15.144Z,101059.25
2022-11-14T17:08:41.752Z,101054.94
2022-11-14T17:11:09.886Z,101055.69
2022-11-14T17:13:37.420Z,101053.06
2022-11-14T17:16:04.894Z,101055.75
2022-11-14T17:18:37.104Z,101046.06
2022-11-14T17:21:09.501Z,101057.53
2022-11-14T17:23:36.117Z,101059.09
2022-11-14T17:26:03.669Z,101047.97
2022-11-14T17:28:31.031Z,101053.94
2022-11-14T17:30:58.114Z,101054.75
2022-11-14T17:33:24.757Z,101054.72
2022-11-14T17:35:51.426Z,101059.94
2022-11-14T17:38:18.121Z,101051.13
2022-11-14T17:40:44.786Z,101047.66
2022-11-14T17:43:11.430Z,101048.38
2022-11-14T17:45:41.106Z,101038.88
2022-11-14T17:48:08.136Z,101039.66
2022-11-14T17:50:38.613Z,101042.34
2022-11-14T17:53:05.205Z,101043.22
2022-11-14T17:55:31.903Z,101041.63
2022-11-14T17:57:58.489Z,101039.03
2022-11-14T18:00:25.158Z,101040.69
2022-11-14T18:02:52.367Z,101035.31
2022-11-14T18:05:19.103Z,101040.59
2022-11-14T18:07:45.842Z,101037.19
2022-11-14T18:10:12.506Z,101032.06
2022-11-14T18:12:42.282Z,101033.72
2022-11-14T18:15:09.216Z,101037.22
2022-11-14T18:17:35.809Z,101032.91
2022-11-14T18:20:02.736Z,101027.69
2022-11-14T18:22:29.485Z,101035.44
2022-11-14T18:24:56.129Z,101029.44
2022-11-14T18:27:22.878Z,101037.22
2022-11-14T18:29:49.470Z,101030.38
2022-11-14T18:32:16.152Z,101036.38
2022-11-14T18:34:42.728Z,101036.28
2022-11-14T18:37:09.563Z,101038.06
2022-11-14T18:39:36.206Z,101028.31
2022-11-14T18:42:02.888Z,101023.00
2022-11-14T18:44:29.867Z,101022.44
2022-11-14T18:46:56.496Z,101024.84
2022-11-14T18:49:23.153Z,101018.78
2022-11-14T18:51:49.744Z,101017.84
2022-11-14T18:54:17.151Z,101014.38
2022-11-14T18:56:44.119Z,101013.56
2022-11-14T18:59:10.801Z,101015.31
2022-11-14T19:01:37.447Z,101014.53
2022-11-14T19:04:06.018Z,101012.84
2022-11-14T19:06:34.695Z,101006.69
2022-11-14T19:09:11.385Z,101017.00
2022-11-14T19:11:57.003Z,101002.31
2022-11-14T19:14:23.808Z,100997.06
2022-11-14T19:16:50.417Z,100995.25
2022-11-14T19:19:17.072Z,100986.38
2022-11-14T19:21:43.917Z,100990.00
2022-11-14T19:24:10.552Z,100977.75
2022-11-14T19:26:37.202Z,100984.63
2022-11-14T19:29:05.596Z,100975.91
2022-11-14T19:31:33.243Z,100974.97
2022-11-14T19:34:00.350Z,100968.84
2022-11-14T19:36:57.844Z,100978.34
2022-11-14T19:39:13.870Z,100974.88
2022-11-14T19:41:40.834Z,100973.16
2022-11-14T19:44:07.498Z,100974.78
2022-11-14T19:46:36.290Z,100979.28
2022-11-14T19:49:03.927Z,100971.44
2022-11-14T19:51:31.068Z,100970.66
2022-11-14T19:53:58.573Z,100972.50
2022-11-14T19:56:29.040Z,100961.38
2022-11-14T19:58:56.745Z,100967.41
2022-11-14T20:01:26.229Z,100962.16
2022-11-14T20:04:01.208Z,100963.13
2022-11-14T20:06:34.991Z,100961.31
2022-11-14T20:09:04.536Z,100961.31
2022-11-14T20:11:31.328Z,100968.28
2022-11-14T20:13:58.575Z,100961.44
2022-11-14T20:16:30.443Z,100950.97
2022-11-14T20:19:00.017Z,100957.91
2022-11-14T20:21:28.859Z,100959.69
2022-11-14T20:23:55.626Z,100960.50
2022-11-14T20:26:22.469Z,100955.28
2022-11-14T20:28:52.077Z,100940.44
2022-11-14T20:31:24.642Z,100935.25
2022-11-14T20:33:52.906Z,100927.41
2022-11-14T20:36:21.868Z,100923.03
2022-11-14T20:38:49.048Z,100912.69
2022-11-14T20:41:16.086Z,100911.81
2022-11-14T20:43:43.239Z,100912.63
2022-11-14T20:46:14.997Z,100920.50
2022-11-14T20:48:41.879Z,100901.28
2022-11-14T20:51:25.648Z,100911.75
2022-11-14T20:53:54.112Z,100917.88
2022-11-14T20:56:21.745Z,100914.44
2022-11-14T20:58:51.695Z,100922.28
2022-11-14T21:01:18.724Z,100916.22
2022-11-14T21:03:45.645Z,100911.00
2022-11-14T21:06:13.183Z,100915.31
2022-11-14T21:08:40.080Z,100908.38
2022-11-14T21:11:12.286Z,100910.13
2022-11-14T21:13:58.729Z,100910.22
2022-11-14T21:16:34.544Z,100913.72
2022-11-14T21:19:03.362Z,100908.44
2022-11-14T21:21:30.637Z,100904.97
2022-11-14T21:23:57.550Z,100899.72
2022-11-14T21:26:26.526Z,100900.59
2022-11-14T21:28:55.432Z,100889.25
2022-11-14T21:31:33.650Z,100898.81
2022-11-14T21:34:02.250Z,100893.59
2022-11-14T21:36:44.291Z,100892.75
2022-11-14T21:39:14.610Z,100887.47
2022-11-14T21:41:42.068Z,100890.09
2022-11-14T21:44:13.778Z,100888.34
2022-11-14T21:46:41.245Z,100890.09
2022-11-14T21:49:08.356Z,100890.16
2022-11-14T21:51:35.226Z,100890.97
2022-11-14T21:54:02.881Z,100890.09
2022-11-14T21:56:31.159Z,100890.13
2022-11-14T21:59:21.407Z,100884.03
2022-11-14T22:02:08.283Z,100890.13
2022-11-14T22:04:35.525Z,100883.94
2022-11-14T22:07:04.221Z,100888.28
2022-11-14T22:09:31.180Z,100896.19
2022-11-14T22:11:58.028Z,100899.69
2022-11-14T22:14:24.981Z,100891.00
2022-11-14T22:16:51.798Z,100889.22
2022-11-14T22:19:19.031Z,100891.84
2022-11-14T22:21:45.758Z,100892.72
2022-11-14T22:24:12.414Z,100874.34
2022-11-14T22:26:40.420Z,100887.50
2022-11-14T22:29:07.841Z,100880.50
2022-11-14T22:31:34.571Z,100880.53
2022-11-14T22:34:01.283Z,100883.06
2022-11-14T22:36:29.025Z,100882.16
2022-11-14T22:38:56.620Z,100879.59
2022-11-14T22:41:32.953Z,100883.94
2022-11-14T22:44:00.725Z,100875.16
2022-11-14T22:46:27.932Z,100876.06
2022-11-14T22:48:54.865Z,100872.50
2022-11-14T22:51:23.791Z,100868.22
2022-11-14T22:53:52.212Z,100860.31
2022-11-14T22:56:20.592Z,100862.03
2022-11-14T22:58:47.293Z,100857.69
2022-11-14T23:01:32.174Z,100869.97
2022-11-14T23:04:04.153Z,100852.56
2022-11-14T23:06:32.995Z,100856.00
2022-11-14T23:09:00.670Z,100851.63
2022-11-14T23:11:29.951Z,100846.47
2022-11-14T23:13:57.651Z,100844.66
2022-11-14T23:16:26.651Z,100850.75
2022-11-14T23:18:55.323Z,100858.63
2022-11-14T23:21:29.962Z,100851.63
2022-11-14T23:24:01.047Z,100845.56
2022-11-14T23:26:29.374Z,100850.75
2022-11-14T23:28:57.512Z,100843.78
2022-11-14T23:31:25.095Z,100835.91
2022-11-14T23:33:53.992Z,100841.13
2022-11-14T23:36:20.649Z,100837.59
2022-11-14T23:38:47.313Z,100833.25
2022-11-14T23:41:19.148Z,100827.09
2022-11-14T23:43:46.391Z,100828.03
2022-11-14T23:46:13.975Z,100830.69
2022-11-14T23:48:41.002Z,100824.53
2022-11-14T23:51:07.802Z,100823.66
2022-11-14T23:53:34.605Z,100821.91
2022-11-14T23:56:02.034Z,100821.03
2022-11-14T23:58:29.945Z,100811.44
